sensor_id;sensor_type;location;lat;lon;timestamp;pressure;altitude;pressure_sealevel;temperature;humidity
69593;BME280;56796;50.122;14.468;2023-11-22T00:17:31;982.76;;;1.38;92.85
69593;BME280;56796;50.122;14.468;2023-11-22T00:36:57;982.98;;;1.29;92.08
69593;BME280;56796;50.122;14.468;2023-11-22T00:56:23;983.02;;;1.14;92.03
69593;BME280;56796;50.122;14.468;2023-11-22T01:15:49;983.12;;;0.95;91.75
69593;BME280;56796;50.122;14.468;2023-11-22T01:35:14;983.45;;;0.85;92.6
69593;BME280;56796;50.122;14.468;2023-11-22T01:54:41;983.51;;;0.75;93.11
69593;BME280;56796;50.122;14.468;2023-11-22T02:14:06;983.69;;;0.71;93.51
69593;BME280;56796;50.122;14.468;2023-11-22T02:33:32;984.04;;;0.66;90.31
69593;BME280;56796;50.122;14.468;2023-11-22T02:52:58;984.35;;;0.67;89.62
69593;BME280;56796;50.122;14.468;2023-11-22T03:12:24;984.45;;;0.47;89.24
69593;BME280;56796;50.122;14.468;2023-11-22T03:31:52;984.7;;;0.03;93.57
69593;BME280;56796;50.122;14.468;2023-11-22T03:51:09;984.95;;;-0.22;96.49
69593;BME280;56796;50.122;14.468;2023-11-22T04:10:35;985.22;;;-0.01;95.25
69593;BME280;56796;50.122;14.468;2023-11-22T04:30:05;985.32;;;0.19;93.19
69593;BME280;56796;50.122;14.468;2023-11-22T04:49:28;985.56;;;0.2;91.89
69593;BME280;56796;50.122;14.468;2023-11-22T05:08:55;985.85;;;0.19;92.43
69593;BME280;56796;50.122;14.468;2023-11-22T05:28:21;986.35;;;0.22;92.35
69593;BME280;56796;50.122;14.468;2023-11-22T05:47:47;986.56;;;0.06;93.37
69593;BME280;56796;50.122;14.468;2023-11-22T06:07:13;986.82;;;0.03;93.44
69593;BME280;56796;50.122;14.468;2023-11-22T06:26:39;986.87;;;0.08;92.56
69593;BME280;56796;50.122;14.468;2023-11-22T06:46:05;987.08;;;0.08;92.7
69593;BME280;56796;50.122;14.468;2023-11-22T07:05:31;987.07;;;0.13;92.71
69593;BME280;56796;50.122;14.468;2023-11-22T07:24:57;987.55;;;0.16;92.95
69593;BME280;56796;50.122;14.468;2023-11-22T07:44:24;988.09;;;0.23;93.19
69593;BME280;56796;50.122;14.468;2023-11-22T08:03:50;987.66;;;0.3;93.81
69593;BME280;56796;50.122;14.468;2023-11-22T08:23:16;988.39;;;0.2;94.25
69593;BME280;56796;50.122;14.468;2023-11-22T08:42:42;988.65;;;0.24;94.97
69593;BME280;56796;50.122;14.468;2023-11-22T09:02:09;988.76;;;0.33;94.83
69593;BME280;56796;50.122;14.468;2023-11-22T09:21:35;988.97;;;0.45;94.48
69593;BME280;56796;50.122;14.468;2023-11-22T09:41:02;988.97;;;0.45;93.75
69593;BME280;56796;50.122;14.468;2023-11-22T10:00:28;989.26;;;0.38;93.59
69593;BME280;56796;50.122;14.468;2023-11-22T10:19:53;989.58;;;0.36;92.84
69593;BME280;56796;50.122;14.468;2023-11-22T10:39:20;989.56;;;0.51;92.41
69593;BME280;56796;50.122;14.468;2023-11-22T10:58:47;989.81;;;0.51;92.31
69593;BME280;56796;50.122;14.468;2023-11-22T11:18:13;989.74;;;0.57;91.83
69593;BME280;56796;50.122;14.468;2023-11-22T11:37:39;989.62;;;0.62;90.83
69593;BME280;56796;50.122;14.468;2023-11-22T11:57:05;989.71;;;0.86;91.01
69593;BME280;56796;50.122;14.468;2023-11-22T12:16:35;989.98;;;0.77;90.22
69593;BME280;56796;50.122;14.468;2023-11-22T12:35:53;990.1;;;0.81;90.2
69593;BME280;56796;50.122;14.468;2023-11-22T12:55:19;989.97;;;0.74;90.09
69593;BME280;56796;50.122;14.468;2023-11-22T13:14:45;989.75;;;0.87;89.27
69593;BME280;56796;50.122;14.468;2023-11-22T13:34:11;989.89;;;0.76;88.51
69593;BME280;56796;50.122;14.468;2023-11-22T13:53:38;989.8;;;0.65;89.07
69593;BME280;56796;50.122;14.468;2023-11-22T14:13:02;989.98;;;0.62;89.21
69593;BME280;56796;50.122;14.468;2023-11-22T14:32:28;990.13;;;0.51;89.2
69593;BME280;56796;50.122;14.468;2023-11-22T14:51:54;990.14;;;0.32;89.86
69593;BME280;56796;50.122;14.468;2023-11-22T15:11:19;990.08;;;0.21;90.07
69593;BME280;56796;50.122;14.468;2023-11-22T15:30:45;990.32;;;0.25;90.78
69593;BME280;56796;50.122;14.468;2023-11-22T15:50:11;990.33;;;0.22;90.76
69593;BME280;56796;50.122;14.468;2023-11-22T16:09:37;990.55;;;0.2;90.84
69593;BME280;56796;50.122;14.468;2023-11-22T16:29:03;990.69;;;0.23;90.83
69593;BME280;56796;50.122;14.468;2023-11-22T16:48:29;990.73;;;0.32;90.85
69593;BME280;56796;50.122;14.468;2023-11-22T17:07:54;990.79;;;0.22;90.11
69593;BME280;56796;50.122;14.468;2023-11-22T17:27:21;990.85;;;0.28;90.12
69593;BME280;56796;50.122;14.468;2023-11-22T17:46:50;990.89;;;0.37;89.69
69593;BME280;56796;50.122;14.468;2023-11-22T18:06:09;990.92;;;0.5;89.21
69593;BME280;56796;50.122;14.468;2023-11-22T18:25:36;990.64;;;0.44;89.09
69593;BME280;56796;50.122;14.468;2023-11-22T18:45:04;990.41;;;0.41;89.4
69593;BME280;56796;50.122;14.468;2023-11-22T19:04:32;990.45;;;0.63;89.41
69593;BME280;56796;50.122;14.468;2023-11-22T19:23:53;990.06;;;0.74;89.07
69593;BME280;56796;50.122;14.468;2023-11-22T19:43:15;989.67;;;0.62;89.55
69593;BME280;56796;50.122;14.468;2023-11-22T20:02:33;989.47;;;0.54;90.54
69593;BME280;56796;50.122;14.468;2023-11-22T20:21:58;989.51;;;0.52;91.59
69593;BME280;56796;50.122;14.468;2023-11-22T20:41:24;989.75;;;0.65;91.9
69593;BME280;56796;50.122;14.468;2023-11-22T21:00:50;989.42;;;0.63;92.31
69593;BME280;56796;50.122;14.468;2023-11-22T21:20:20;989.17;;;0.62;92.64
69593;BME280;56796;50.122;14.468;2023-11-22T21:39:38;988.89;;;0.7;92.86
69593;BME280;56796;50.122;14.468;2023-11-22T21:59:07;988.71;;;0.84;92.66
69593;BME280;56796;50.122;14.468;2023-11-22T22:18:25;988.63;;;0.89;92.13
69593;BME280;56796;50.122;14.468;2023-11-22T22:37:50;988.4;;;0.89;92.03
69593;BME280;56796;50.122;14.468;2023-11-22T22:57:17;988.12;;;0.98;91.52
69593;BME280;56796;50.122;14.468;2023-11-22T23:16:43;988;;;0.99;90.56
69593;BME280;56796;50.122;14.468;2023-11-22T23:36:09;987.7;;;0.91;90.31
69593;BME280;56796;50.122;14.468;2023-11-22T23:55:35;987.34;;;0.81;90.2
